createdAt,value
2022-09-28T00:01:15.322Z,99142.25
2022-09-28T00:03:44.792Z,99147.13
2022-09-28T00:06:14.916Z,99134.44
2022-09-28T00:08:42.084Z,99142.63
2022-09-28T00:11:12.946Z,99141.28
2022-09-28T00:13:40.379Z,99139.06
2022-09-28T00:16:11.928Z,99132.06
2022-09-28T00:18:38.614Z,99134.84
2022-09-28T00:21:08.786Z,99139.16
2022-09-28T00:23:57.741Z,99140.00
2022-09-28T00:26:25.499Z,99131.16
2022-09-28T00:28:59.216Z,99136.84
2022-09-28T00:31:29.236Z,99142.22
2022-09-28T00:33:57.003Z,99145.56
2022-09-28T00:36:27.014Z,99140.91
2022-09-28T00:38:56.507Z,99140.91
2022-09-28T00:41:25.129Z,99141.94
2022-09-28T00:43:53.745Z,99134.78
2022-09-28T00:46:34.815Z,99136.97
2022-09-28T00:49:07.586Z,99137.47
2022-09-28T00:51:38.279Z,99136.81
2022-09-28T00:54:07.630Z,99144.31
2022-09-28T00:56:40.402Z,99144.31
2022-09-28T00:59:10.129Z,99148.81
2022-09-28T01:01:37.530Z,99145.31
2022-09-28T01:04:07.170Z,99144.97
2022-09-28T01:06:36.538Z,99147.81
2022-09-28T01:09:05.751Z,99142.00
2022-09-28T01:11:35.269Z,99143.63
2022-09-28T01:14:06.223Z,99141.47
2022-09-28T01:16:43.333Z,99136.63
2022-09-28T01:20:00.358Z,99140.16
2022-09-28T01:22:36.297Z,99135.97
2022-09-28T01:25:21.633Z,99132.47
2022-09-28T01:27:54.076Z,99129.66
2022-09-28T01:30:22.017Z,99131.00
2022-09-28T01:33:04.076Z,99132.31
2022-09-28T01:36:01.424Z,99135.97
2022-09-28T01:38:37.941Z,99126.66
2022-09-28T01:41:06.039Z,99128.47
2022-09-28T01:43:39.181Z,99124.31
2022-09-28T01:46:22.282Z,99132.00
2022-09-28T01:48:58.270Z,99127.31
2022-09-28T01:51:34.901Z,99131.97
2022-09-28T01:54:12.553Z,99126.81
2022-09-28T01:57:33.910Z,99138.28
2022-09-28T02:00:18.094Z,99128.94
2022-09-28T02:02:59.260Z,99128.28
2022-09-28T02:05:48.974Z,99127.94
2022-09-28T02:08:26.873Z,99135.06
2022-09-28T02:11:14.367Z,99136.88
2022-09-28T02:13:46.146Z,99135.19
2022-09-28T02:16:40.074Z,99136.84
2022-09-28T02:19:11.526Z,99134.84
2022-09-28T02:21:38.413Z,99137.66
2022-09-28T02:24:20.640Z,99136.19
2022-09-28T02:26:50.805Z,99134.69
2022-09-28T02:29:18.161Z,99134.84
2022-09-28T02:31:45.172Z,99133.00
2022-09-28T02:34:11.995Z,99135.47
2022-09-28T02:36:39.008Z,99129.63
2022-09-28T02:39:06.707Z,99139.44
2022-09-28T02:41:55.831Z,99130.78
2022-09-28T02:44:47.576Z,99137.25
2022-09-28T02:47:46.984Z,99139.94
2022-09-28T02:50:33.252Z,99150.72
2022-09-28T02:53:21.490Z,99149.69
2022-09-28T02:56:00.472Z,99148.97
2022-09-28T02:58:27.595Z,99142.00
2022-09-28T03:01:14.822Z,99141.81
2022-09-28T03:03:55.597Z,99142.97
2022-09-28T03:06:33.716Z,99145.34
2022-09-28T03:09:08.049Z,99145.63
2022-09-28T03:11:47.681Z,99146.63
2022-09-28T03:14:15.452Z,99135.53
2022-09-28T03:16:50.930Z,99144.47
2022-09-28T03:19:23.755Z,99136.97
2022-09-28T03:21:51.612Z,99138.13
2022-09-28T03:24:18.477Z,99138.03
2022-09-28T03:26:45.290Z,99138.03
2022-09-28T03:29:13.548Z,99138.22
2022-09-28T03:31:40.603Z,99131.78
2022-09-28T03:34:07.386Z,99129.00
2022-09-28T03:36:34.133Z,99128.03
2022-09-28T03:39:00.973Z,99125.91
2022-09-28T03:41:28.014Z,99137.59
2022-09-28T03:43:54.937Z,99137.09
2022-09-28T03:46:24.000Z,99138.91
2022-09-28T03:48:58.280Z,99140.25
2022-09-28T03:51:25.675Z,99135.97
2022-09-28T03:53:53.502Z,99138.63
2022-09-28T03:56:21.057Z,99133.66
2022-09-28T03:58:47.812Z,99136.66
2022-09-28T04:01:17.629Z,99136.66
2022-09-28T04:03:46.355Z,99143.16
2022-09-28T04:06:13.655Z,99129.34
2022-09-28T04:08:40.532Z,99129.50
2022-09-28T04:11:08.530Z,99129.34
2022-09-28T04:13:35.372Z,99125.84
2022-09-28T04:16:02.433Z,99132.84
2022-09-28T04:18:33.439Z,99118.50
2022-09-28T04:21:23.571Z,99122.69
2022-09-28T04:23:58.114Z,99122.03
2022-09-28T04:26:27.063Z,99118.34
2022-09-28T04:29:12.188Z,99127.66
2022-09-28T04:31:48.643Z,99124.19
2022-09-28T04:34:21.475Z,99123.66
2022-09-28T04:36:50.068Z,99128.34
2022-09-28T04:39:19.298Z,99122.69
2022-09-28T04:41:52.690Z,99122.69
2022-09-28T04:44:19.483Z,99119.69
2022-09-28T04:46:48.559Z,99120.66
2022-09-28T04:49:30.433Z,99113.00
2022-09-28T04:52:02.226Z,99113.69
2022-09-28T04:54:28.925Z,99113.69
2022-09-28T04:56:57.547Z,99118.84
2022-09-28T04:59:24.673Z,99111.38
2022-09-28T05:01:51.480Z,99113.00
2022-09-28T05:04:36.794Z,99109.38
2022-09-28T05:07:11.858Z,99093.03
2022-09-28T05:09:38.810Z,99091.84
2022-09-28T05:12:05.858Z,99093.34
2022-09-28T05:14:32.612Z,99099.03
2022-09-28T05:16:59.490Z,99093.34
2022-09-28T05:19:26.408Z,99083.34
2022-09-28T05:22:04.381Z,99090.16
2022-09-28T05:24:36.300Z,99093.00
2022-09-28T05:27:03.130Z,99087.34
2022-09-28T05:29:32.243Z,99086.00
2022-09-28T05:32:17.876Z,99074.00
2022-09-28T05:34:51.503Z,99082.16
2022-09-28T05:37:24.432Z,99073.53
2022-09-28T05:39:51.172Z,99080.66
2022-09-28T05:42:17.999Z,99070.38
2022-09-28T05:44:44.758Z,99082.16
2022-09-28T05:47:12.456Z,99067.34
2022-09-28T05:49:39.537Z,99078.00
2022-09-28T05:52:06.223Z,99072.69
2022-09-28T05:54:37.110Z,99072.81
2022-09-28T05:57:05.847Z,99079.34
2022-09-28T05:59:35.077Z,99080.00
2022-09-28T06:02:03.149Z,99085.69
2022-09-28T06:04:30.090Z,99077.50
2022-09-28T06:06:57.552Z,99074.69
2022-09-28T06:09:26.048Z,99074.66
2022-09-28T06:11:57.928Z,99084.66
2022-09-28T06:14:32.841Z,99083.16
2022-09-28T06:16:59.597Z,99081.31
2022-09-28T06:19:26.363Z,99072.66
2022-09-28T06:22:05.928Z,99073.16
2022-09-28T06:24:37.768Z,99077.63
2022-09-28T06:27:04.560Z,99084.28
2022-09-28T06:29:31.385Z,99083.31
2022-09-28T06:31:58.171Z,99076.97
2022-09-28T06:34:25.395Z,99075.28
2022-09-28T06:36:52.854Z,99076.28
2022-09-28T06:39:19.746Z,99079.59
2022-09-28T06:41:46.595Z,99077.59
2022-09-28T06:44:19.741Z,99083.91
2022-09-28T06:47:04.937Z,99088.88
2022-09-28T06:50:11.054Z,99086.84
2022-09-28T06:52:58.899Z,99089.97
2022-09-28T06:55:43.006Z,99083.16
2022-09-28T06:58:12.360Z,99084.13
2022-09-28T07:00:40.537Z,99084.13
2022-09-28T07:03:15.768Z,99088.16
2022-09-28T07:05:56.524Z,99088.97
2022-09-28T07:09:06.941Z,99091.78
2022-09-28T07:11:59.448Z,99081.56
2022-09-28T07:14:47.480Z,99088.78
2022-09-28T07:17:15.820Z,99092.22
2022-09-28T07:19:43.457Z,99088.78
2022-09-28T07:22:18.554Z,99089.31
2022-09-28T07:24:48.020Z,99091.66
2022-09-28T07:27:33.894Z,99107.41
2022-09-28T07:30:14.339Z,99096.44
2022-09-28T07:32:56.186Z,99100.56
2022-09-28T07:35:38.450Z,99097.38
2022-09-28T07:38:07.481Z,99096.31
2022-09-28T07:40:54.797Z,99103.16
2022-09-28T07:43:24.303Z,99105.41
2022-09-28T07:45:57.008Z,99102.88
2022-09-28T07:48:23.902Z,99104.50
2022-09-28T07:51:10.885Z,99101.78
2022-09-28T07:53:44.980Z,99098.34
2022-09-28T07:56:37.904Z,99098.19
2022-09-28T07:59:36.951Z,99102.16
2022-09-28T08:02:28.482Z,99097.38
2022-09-28T08:04:56.383Z,99095.47
2022-09-28T08:07:24.268Z,99101.66
2022-09-28T08:09:58.793Z,99103.78
2022-09-28T08:12:28.284Z,99101.06
2022-09-28T08:15:10.411Z,99112.19
2022-09-28T08:17:50.866Z,99118.00
2022-09-28T08:20:38.623Z,99109.38
2022-09-28T08:23:07.594Z,99110.50
2022-09-28T08:25:38.328Z,99118.44
2022-09-28T08:28:07.324Z,99111.06
2022-09-28T08:30:39.866Z,99116.84
2022-09-28T08:33:21.293Z,99125.44
2022-09-28T08:36:06.943Z,99128.94
2022-09-28T08:38:51.997Z,99123.34
2022-09-28T08:42:11.095Z,99125.38
2022-09-28T08:45:23.254Z,99126.66
2022-09-28T08:48:48.174Z,99132.66
2022-09-28T08:51:42.311Z,99130.28
2022-09-28T08:54:33.367Z,99128.13
2022-09-28T08:57:12.590Z,99126.97
2022-09-28T08:59:53.366Z,99135.78
2022-09-28T09:02:33.576Z,99133.38
2022-09-28T09:05:19.951Z,99132.00
2022-09-28T09:08:31.729Z,99137.06
2022-09-28T09:11:17.025Z,99135.28
2022-09-28T09:14:09.707Z,99129.44
2022-09-28T09:17:00.969Z,99130.13
2022-09-28T09:20:06.047Z,99130.06
2022-09-28T09:23:15.914Z,99132.50
2022-09-28T09:25:54.925Z,99130.66
2022-09-28T09:28:57.915Z,99126.91
2022-09-28T09:31:42.912Z,99129.34
2022-09-28T09:34:19.964Z,99119.97
2022-09-28T09:37:04.352Z,99122.56
2022-09-28T09:40:39.029Z,99121.56
2022-09-28T09:43:58.793Z,99122.38
2022-09-28T09:47:04.687Z,99126.53
2022-09-28T09:49:39.701Z,99126.72
2022-09-28T09:55:10.850Z,99131.69
2022-09-28T09:58:00.354Z,99129.28
2022-09-28T10:00:43.913Z,99127.94
2022-09-28T10:03:28.090Z,99135.56
2022-09-28T10:06:27.556Z,99131.19
2022-09-28T10:09:20.648Z,99124.31
2022-09-28T10:11:52.001Z,99123.41
2022-09-28T10:14:22.294Z,99133.28
2022-09-28T10:17:05.305Z,99140.34
2022-09-28T10:20:16.176Z,99134.75
2022-09-28T10:23:14.448Z,99131.78
2022-09-28T10:25:46.305Z,99140.09
2022-09-28T10:28:19.596Z,99152.16
2022-09-28T10:30:46.466Z,99145.47
2022-09-28T10:33:34.190Z,99152.84
2022-09-28T10:36:07.001Z,99152.75
2022-09-28T10:38:34.627Z,99142.47
2022-09-28T10:41:13.559Z,99155.56
2022-09-28T10:44:06.395Z,99152.88
2022-09-28T10:46:59.353Z,99152.91
2022-09-28T10:49:28.610Z,99156.56
2022-09-28T10:51:57.973Z,99162.78
2022-09-28T10:54:31.014Z,99161.59
2022-09-28T10:56:59.877Z,99167.53
2022-09-28T10:59:52.889Z,99160.63
2022-09-28T11:02:36.402Z,99150.34
2022-09-28T11:05:22.572Z,99155.63
2022-09-28T11:07:52.741Z,99159.41
2022-09-28T11:10:30.374Z,99170.78
2022-09-28T11:13:03.262Z,99150.34
2022-09-28T11:15:34.035Z,99155.50
2022-09-28T11:18:32.666Z,99140.19
2022-09-28T11:21:27.675Z,99153.78
2022-09-28T11:24:07.004Z,99153.28
2022-09-28T11:26:43.840Z,99159.16
2022-09-28T11:29:36.959Z,99164.69
2022-09-28T11:32:24.485Z,99168.19
2022-09-28T11:35:21.393Z,99160.03
2022-09-28T11:38:27.137Z,99159.78
2022-09-28T11:41:24.784Z,99151.41
2022-09-28T11:44:21.467Z,99157.88
2022-09-28T11:47:20.583Z,99159.50
2022-09-28T11:50:00.402Z,99165.97
2022-09-28T11:52:54.397Z,99169.03
2022-09-28T11:55:21.286Z,99173.75
2022-09-28T11:58:05.896Z,99172.56
2022-09-28T12:00:40.260Z,99173.78
2022-09-28T12:03:15.244Z,99176.38
2022-09-28T12:05:52.043Z,99167.91
2022-09-28T12:08:27.594Z,99163.72
2022-09-28T12:11:15.839Z,99165.78
2022-09-28T12:14:06.766Z,99170.59
2022-09-28T12:17:07.657Z,99174.72
2022-09-28T12:19:42.389Z,99166.94
2022-09-28T12:22:45.899Z,99162.84
2022-09-28T12:25:19.539Z,99165.78
2022-09-28T12:28:08.135Z,99165.53
2022-09-28T12:30:40.653Z,99158.72
2022-09-28T12:33:17.762Z,99167.81
2022-09-28T12:36:02.557Z,99164.13
2022-09-28T12:39:14.835Z,99166.41
2022-09-28T12:42:32.153Z,99160.97
2022-09-28T12:45:27.216Z,99168.69
2022-09-28T12:48:32.206Z,99164.50
2022-09-28T12:51:31.278Z,99177.22
2022-09-28T12:54:14.786Z,99180.38
2022-09-28T12:56:56.582Z,99176.59
2022-09-28T12:59:32.067Z,99175.38
2022-09-28T13:02:34.433Z,99182.66
2022-09-28T13:05:24.806Z,99182.56
2022-09-28T13:08:26.482Z,99177.41
2022-09-28T13:11:14.120Z,99181.88
2022-09-28T13:13:46.869Z,99171.59
2022-09-28T13:16:26.598Z,99177.00
2022-09-28T13:19:30.993Z,99163.16
2022-09-28T13:22:06.662Z,99165.13
2022-09-28T13:24:38.736Z,99165.06
2022-09-28T13:27:13.566Z,99165.28
2022-09-28T13:29:41.719Z,99164.09
2022-09-28T13:32:09.774Z,99172.00
2022-09-28T13:34:37.838Z,99163.53
2022-09-28T13:37:24.166Z,99168.34
2022-09-28T13:39:59.048Z,99157.41
2022-09-28T13:42:44.384Z,99171.28
2022-09-28T13:45:30.414Z,99178.50
2022-09-28T13:47:59.785Z,99179.31
2022-09-28T13:50:48.178Z,99174.47
2022-09-28T13:53:42.698Z,99188.56
2022-09-28T13:56:27.285Z,99175.31
2022-09-28T13:59:15.403Z,99185.63
2022-09-28T14:01:59.139Z,99176.91
2022-09-28T14:04:53.383Z,99183.53
2022-09-28T14:07:21.351Z,99192.22
2022-09-28T14:10:07.307Z,99176.50
2022-09-28T14:12:33.926Z,99189.69
2022-09-28T14:15:28.809Z,99195.72
2022-09-28T14:18:10.327Z,99190.34
2022-09-28T14:20:37.059Z,99192.13
2022-09-28T14:23:30.209Z,99197.56
2022-09-28T14:26:11.797Z,99203.00
2022-09-28T14:29:16.328Z,99198.59
2022-09-28T14:31:43.840Z,99202.69
2022-09-28T14:34:31.810Z,99202.03
2022-09-28T14:37:17.825Z,99212.78
2022-09-28T14:40:04.692Z,99208.25
2022-09-28T14:42:31.786Z,99212.44
2022-09-28T14:45:06.771Z,99210.72
2022-09-28T14:47:41.613Z,99211.28
2022-09-28T14:50:20.271Z,99206.91
2022-09-28T14:52:51.513Z,99206.28
2022-09-28T14:55:26.192Z,99206.28
2022-09-28T14:57:57.138Z,99205.38
2022-09-28T15:00:26.625Z,99212.44
2022-09-28T15:02:59.440Z,99209.66
2022-09-28T15:05:42.416Z,99217.91
2022-09-28T15:08:11.877Z,99214.53
2022-09-28T15:10:48.080Z,99216.22
2022-09-28T15:13:28.736Z,99218.34
2022-09-28T15:16:03.850Z,99215.81
2022-09-28T15:19:01.582Z,99216.72
2022-09-28T15:21:40.863Z,99224.09
2022-09-28T15:24:33.827Z,99222.81
2022-09-28T15:27:02.617Z,99222.06
2022-09-28T15:29:33.662Z,99233.00
2022-09-28T15:32:00.600Z,99229.00
2022-09-28T15:34:45.594Z,99235.63
2022-09-28T15:37:13.583Z,99235.63
2022-09-28T15:39:40.460Z,99243.69
2022-09-28T15:42:07.304Z,99242.59
2022-09-28T15:44:42.951Z,99250.00
2022-09-28T15:47:25.224Z,99243.06
2022-09-28T15:50:01.903Z,99235.88
2022-09-28T15:52:37.447Z,99242.31
2022-09-28T15:58:15.784Z,99237.41
2022-09-28T16:00:44.659Z,99253.53
2022-09-28T16:03:11.327Z,99250.28
2022-09-28T16:05:49.005Z,99251.34
2022-09-28T16:08:24.963Z,99253.34
2022-09-28T16:11:30.136Z,99256.19
2022-09-28T16:14:08.934Z,99257.25
2022-09-28T16:16:48.003Z,99253.75
2022-09-28T16:19:37.716Z,99262.22
2022-09-28T16:22:17.078Z,99253.34
2022-09-28T16:24:54.824Z,99257.09
2022-09-28T16:27:29.101Z,99261.97
2022-09-28T16:30:14.485Z,99270.16
2022-09-28T16:32:52.290Z,99264.88
2022-09-28T16:35:21.160Z,99262.38
2022-09-28T16:37:56.914Z,99270.41
2022-09-28T16:40:24.056Z,99276.78
2022-09-28T16:42:51.646Z,99280.06
2022-09-28T16:45:21.681Z,99276.44
2022-09-28T16:47:52.790Z,99287.88
2022-09-28T16:50:22.268Z,99284.66
2022-09-28T16:53:15.400Z,99298.91
2022-09-28T16:55:42.164Z,99285.19
2022-09-28T16:58:08.929Z,99283.97
2022-09-28T17:00:36.269Z,99280.63
2022-09-28T17:03:13.082Z,99292.28
2022-09-28T17:05:40.246Z,99293.50
2022-09-28T17:08:07.101Z,99294.78
2022-09-28T17:11:12.451Z,99281.88
2022-09-28T17:13:33.873Z,99293.31
2022-09-28T17:16:01.778Z,99285.72
2022-09-28T17:18:31.887Z,99296.81
2022-09-28T17:21:03.529Z,99291.75
2022-09-28T17:23:30.475Z,99303.50
2022-09-28T17:25:58.957Z,99314.56
2022-09-28T17:28:32.454Z,99308.03
2022-09-28T17:30:59.670Z,99320.25
2022-09-28T17:33:26.524Z,99325.69
2022-09-28T17:36:00.151Z,99327.81
2022-09-28T17:38:27.655Z,99345.47
2022-09-28T17:40:54.377Z,99343.56
2022-09-28T17:43:22.244Z,99335.78
2022-09-28T17:45:50.393Z,99338.84
2022-09-28T17:48:20.742Z,99338.53
2022-09-28T17:50:47.547Z,99337.34
2022-09-28T17:53:14.716Z,99345.28
2022-09-28T17:55:43.102Z,99329.13
2022-09-28T17:58:21.538Z,99341.31
2022-09-28T18:00:50.846Z,99348.81
2022-09-28T18:03:20.684Z,99358.56
2022-09-28T18:05:49.777Z,99361.06
2022-09-28T18:08:21.153Z,99363.53
2022-09-28T18:10:47.901Z,99353.28
2022-09-28T18:13:14.654Z,99356.28
2022-09-28T18:15:41.774Z,99359.38
2022-09-28T18:18:09.824Z,99355.31
2022-09-28T18:20:37.822Z,99353.59
2022-09-28T18:23:05.153Z,99364.66
2022-09-28T18:25:31.901Z,99367.50
2022-09-28T18:28:00.247Z,99364.09
2022-09-28T18:30:27.981Z,99368.63
2022-09-28T18:32:54.904Z,99379.09
2022-09-28T18:35:23.109Z,99379.34
2022-09-28T18:37:50.601Z,99386.84
2022-09-28T18:40:17.531Z,99383.31
2022-09-28T18:42:44.303Z,99387.38
2022-09-28T18:45:11.354Z,99391.00
2022-09-28T18:47:39.286Z,99389.34
2022-09-28T18:50:06.761Z,99395.19
2022-09-28T18:52:37.514Z,99392.69
2022-09-28T18:55:05.963Z,99405.91
2022-09-28T18:57:35.490Z,99396.19
2022-09-28T19:00:08.289Z,99410.50
2022-09-28T19:02:35.506Z,99414.03
2022-09-28T19:05:02.275Z,99408.88
2022-09-28T19:07:29.284Z,99413.31
2022-09-28T19:09:55.997Z,99408.06
2022-09-28T19:12:23.871Z,99417.66
2022-09-28T19:14:50.511Z,99425.44
2022-09-28T19:17:18.146Z,99424.56
2022-09-28T19:19:45.033Z,99432.91
2022-09-28T19:22:12.508Z,99439.03
2022-09-28T19:24:39.292Z,99439.66
2022-09-28T19:27:06.017Z,99436.16
2022-09-28T19:29:33.221Z,99445.03
2022-09-28T19:32:00.139Z,99454.38
2022-09-28T19:34:30.087Z,99446.31
2022-09-28T19:36:57.244Z,99448.94
2022-09-28T19:39:24.036Z,99458.91
2022-09-28T19:41:54.343Z,99457.06
2022-09-28T19:44:25.444Z,99459.09
2022-09-28T19:47:21.711Z,99452.78
2022-09-28T19:49:49.145Z,99466.41
2022-09-28T19:52:16.810Z,99458.13
2022-09-28T19:54:57.710Z,99461.78
2022-09-28T19:57:27.861Z,99465.38
2022-09-28T20:00:00.935Z,99460.56
2022-09-28T20:02:33.299Z,99458.34
2022-09-28T20:05:00.161Z,99465.94
2022-09-28T20:07:26.858Z,99465.03
2022-09-28T20:09:53.606Z,99463.16
2022-09-28T20:12:20.425Z,99470.19
2022-09-28T20:14:47.149Z,99478.34
2022-09-28T20:17:13.937Z,99475.91
2022-09-28T20:19:40.658Z,99474.63
2022-09-28T20:22:07.460Z,99483.78
2022-09-28T20:24:34.200Z,99475.19
2022-09-28T20:27:01.433Z,99488.13
2022-09-28T20:29:28.412Z,99486.47
2022-09-28T20:31:55.098Z,99489.50
2022-09-28T20:34:21.772Z,99491.38
2022-09-28T20:36:48.523Z,99496.09
2022-09-28T20:39:15.299Z,99493.66
2022-09-28T20:41:42.180Z,99492.09
2022-09-28T20:44:10.026Z,99498.31
2022-09-28T20:46:37.093Z,99503.47
2022-09-28T20:49:05.259Z,99497.66
2022-09-28T20:51:32.025Z,99508.75
2022-09-28T20:53:59.198Z,99511.78
2022-09-28T20:56:39.723Z,99512.25
2022-09-28T20:59:12.852Z,99509.41
2022-09-28T21:01:40.750Z,99515.50
2022-09-28T21:04:09.699Z,99512.56
2022-09-28T21:06:38.815Z,99521.69
2022-09-28T21:09:07.464Z,99519.41
2022-09-28T21:11:36.017Z,99523.13
2022-09-28T21:14:06.297Z,99526.25
2022-09-28T21:16:34.883Z,99524.59
2022-09-28T21:19:01.942Z,99527.28
2022-09-28T21:21:28.746Z,99523.16
2022-09-28T21:23:56.585Z,99531.97
2022-09-28T21:26:26.080Z,99530.31
2022-09-28T21:29:06.804Z,99527.06
2022-09-28T21:31:46.693Z,99531.97
2022-09-28T21:34:21.221Z,99530.78
2022-09-28T21:36:51.297Z,99541.91
2022-09-28T21:39:18.969Z,99540.47
2022-09-28T21:41:45.781Z,99541.13
2022-09-28T21:44:12.587Z,99538.25
2022-09-28T21:46:39.513Z,99551.50
2022-09-28T21:49:08.140Z,99541.94
2022-09-28T21:51:35.823Z,99544.44
2022-09-28T21:54:02.538Z,99546.22
2022-09-28T21:56:29.282Z,99556.66
2022-09-28T21:58:55.975Z,99552.88
2022-09-28T22:01:25.591Z,99559.81
2022-09-28T22:03:56.432Z,99558.38
2022-09-28T22:06:27.955Z,99564.53
2022-09-28T22:08:55.322Z,99564.53
2022-09-28T22:11:24.985Z,99560.84
2022-09-28T22:13:54.414Z,99563.69
2022-09-28T22:16:24.309Z,99564.19
2022-09-28T22:18:51.220Z,99570.91
2022-09-28T22:21:21.005Z,99576.63
2022-09-28T22:23:48.493Z,99581.00
2022-09-28T22:26:23.888Z,99576.28
2022-09-28T22:28:58.936Z,99587.66
2022-09-28T22:31:29.460Z,99595.44
2022-09-28T22:33:56.757Z,99589.06
2022-09-28T22:36:23.930Z,99589.31
2022-09-28T22:38:50.689Z,99591.53
2022-09-28T22:41:20.891Z,99590.16
2022-09-28T22:43:49.711Z,99596.38
2022-09-28T22:46:22.349Z,99597.63
2022-09-28T22:48:52.626Z,99600.63
2022-09-28T22:51:20.095Z,99596.09
2022-09-28T22:53:47.416Z,99604.31
2022-09-28T22:56:18.515Z,99607.75
2022-09-28T22:58:46.738Z,99600.78
2022-09-28T23:01:22.672Z,99608.03
2022-09-28T23:03:53.717Z,99606.25
2022-09-28T23:06:26.136Z,99607.75
2022-09-28T23:08:56.249Z,99608.47
2022-09-28T23:11:23.303Z,99609.94
2022-09-28T23:13:54.364Z,99608.28
2022-09-28T23:16:23.627Z,99614.50
2022-09-28T23:18:50.489Z,99614.19
2022-09-28T23:21:20.089Z,99619.72
2022-09-28T23:23:57.140Z,99620.94
2022-09-28T23:26:27.054Z,99632.63
2022-09-28T23:28:54.512Z,99630.28
2022-09-28T23:31:27.265Z,99635.00
2022-09-28T23:34:01.762Z,99626.28
2022-09-28T23:36:28.613Z,99629.03
2022-09-28T23:38:55.339Z,99636.75
2022-09-28T23:41:22.191Z,99635.59
2022-09-28T23:43:49.022Z,99637.03
2022-09-28T23:46:20.482Z,99635.72
2022-09-28T23:48:48.842Z,99647.81
2022-09-28T23:51:15.591Z,99652.19
2022-09-28T23:53:43.287Z,99638.59
2022-09-28T23:56:10.073Z,99649.84
2022-09-28T23:58:36.792Z,99649.72
